Terminal Aerodrome Forecast
Issued by NWS Grand Rapids, MI

Current Version | Previous Version | Text Only | Print | Product List | Glossary On
Versions: 1 2 3 4 5 6 7 8 9 10 11 12 13 14 15 16 17 18 19 20 21 22 23
000
FTUS43 KGRR 301800 AAA
TAFGRR
TAF AMD
KGRR 301828Z 3018/3118 29009KT P6SM VCSH BKN040
     FM302100 29009KT P6SM BKN040
     FM310000 VRB05KT P6SM SCT080
     FM311600 23009KT P6SM VCSH SCT040=

USA.gov is the U.S. government's official web portal to all federal, state and local government web resources and services.